sensor_id;sensor_type;location;lat;lon;timestamp;P1;durP1;ratioP1;P2;durP2;ratioP2
39102;SDS011;24847;48.218;16.414;2024-02-21T00:00:04;3.95;;;1.80;;
39102;SDS011;24847;48.218;16.414;2024-02-21T00:05:09;3.35;;;1.95;;
39102;SDS011;24847;48.218;16.414;2024-02-21T00:10:12;5.32;;;1.80;;
39102;SDS011;24847;48.218;16.414;2024-02-21T00:15:14;2.78;;;1.58;;
39102;SDS011;24847;48.218;16.414;2024-02-21T00:20:17;3.15;;;1.73;;
39102;SDS011;24847;48.218;16.414;2024-02-21T00:25:20;4.55;;;1.67;;
39102;SDS011;24847;48.218;16.414;2024-02-21T00:30:23;3.03;;;1.70;;
39102;SDS011;24847;48.218;16.414;2024-02-21T00:35:25;4.72;;;1.90;;
39102;SDS011;24847;48.218;16.414;2024-02-21T00:40:28;2.88;;;1.35;;
39102;SDS011;24847;48.218;16.414;2024-02-21T00:45:30;4.82;;;1.70;;
39102;SDS011;24847;48.218;16.414;2024-02-21T00:50:33;2.72;;;1.50;;
39102;SDS011;24847;48.218;16.414;2024-02-21T00:55:36;2.35;;;1.40;;
39102;SDS011;24847;48.218;16.414;2024-02-21T01:00:39;2.97;;;1.42;;
39102;SDS011;24847;48.218;16.414;2024-02-21T01:05:41;3.00;;;1.23;;
39102;SDS011;24847;48.218;16.414;2024-02-21T01:10:44;2.92;;;1.40;;
39102;SDS011;24847;48.218;16.414;2024-02-21T01:15:46;3.78;;;1.63;;
39102;SDS011;24847;48.218;16.414;2024-02-21T01:20:48;2.15;;;1.30;;
39102;SDS011;24847;48.218;16.414;2024-02-21T01:25:52;2.55;;;1.60;;
39102;SDS011;24847;48.218;16.414;2024-02-21T01:30:55;5.22;;;1.33;;
39102;SDS011;24847;48.218;16.414;2024-02-21T01:35:57;4.03;;;1.45;;
39102;SDS011;24847;48.218;16.414;2024-02-21T01:41:01;3.83;;;1.40;;
39102;SDS011;24847;48.218;16.414;2024-02-21T01:46:04;3.42;;;1.50;;
39102;SDS011;24847;48.218;16.414;2024-02-21T01:51:06;3.70;;;1.50;;
39102;SDS011;24847;48.218;16.414;2024-02-21T01:56:10;2.70;;;1.45;;
39102;SDS011;24847;48.218;16.414;2024-02-21T02:01:14;3.72;;;1.60;;
39102;SDS011;24847;48.218;16.414;2024-02-21T02:06:16;3.17;;;1.30;;
39102;SDS011;24847;48.218;16.414;2024-02-21T02:11:19;3.30;;;1.50;;
39102;SDS011;24847;48.218;16.414;2024-02-21T02:16:22;3.08;;;1.52;;
39102;SDS011;24847;48.218;16.414;2024-02-21T02:21:26;3.25;;;1.40;;
39102;SDS011;24847;48.218;16.414;2024-02-21T02:26:33;4.18;;;1.60;;
39102;SDS011;24847;48.218;16.414;2024-02-21T02:31:35;4.80;;;1.38;;
39102;SDS011;24847;48.218;16.414;2024-02-21T02:36:37;3.50;;;1.50;;
39102;SDS011;24847;48.218;16.414;2024-02-21T02:41:41;3.17;;;1.33;;
39102;SDS011;24847;48.218;16.414;2024-02-21T02:46:43;5.38;;;1.80;;
39102;SDS011;24847;48.218;16.414;2024-02-21T02:51:45;2.97;;;1.33;;
39102;SDS011;24847;48.218;16.414;2024-02-21T02:56:49;4.32;;;1.60;;
39102;SDS011;24847;48.218;16.414;2024-02-21T03:01:51;4.28;;;1.88;;
39102;SDS011;24847;48.218;16.414;2024-02-21T03:06:53;2.92;;;1.25;;
39102;SDS011;24847;48.218;16.414;2024-02-21T03:11:57;2.15;;;1.42;;
39102;SDS011;24847;48.218;16.414;2024-02-21T03:17:02;3.35;;;1.08;;
39102;SDS011;24847;48.218;16.414;2024-02-21T03:22:05;5.20;;;1.55;;
39102;SDS011;24847;48.218;16.414;2024-02-21T03:27:09;3.38;;;1.15;;
39102;SDS011;24847;48.218;16.414;2024-02-21T03:32:11;3.17;;;1.17;;
39102;SDS011;24847;48.218;16.414;2024-02-21T03:37:13;4.88;;;1.40;;
39102;SDS011;24847;48.218;16.414;2024-02-21T03:42:16;3.85;;;1.55;;
39102;SDS011;24847;48.218;16.414;2024-02-21T03:47:19;3.25;;;1.10;;
39102;SDS011;24847;48.218;16.414;2024-02-21T03:52:21;2.35;;;1.10;;
39102;SDS011;24847;48.218;16.414;2024-02-21T03:57:24;2.80;;;1.30;;
39102;SDS011;24847;48.218;16.414;2024-02-21T04:02:27;3.70;;;1.30;;
39102;SDS011;24847;48.218;16.414;2024-02-21T04:07:29;2.63;;;1.30;;
39102;SDS011;24847;48.218;16.414;2024-02-21T04:12:32;3.92;;;1.48;;
39102;SDS011;24847;48.218;16.414;2024-02-21T04:17:35;3.53;;;1.27;;
39102;SDS011;24847;48.218;16.414;2024-02-21T04:22:37;4.95;;;1.98;;
39102;SDS011;24847;48.218;16.414;2024-02-21T04:27:41;3.88;;;1.92;;
39102;SDS011;24847;48.218;16.414;2024-02-21T04:32:43;6.95;;;3.35;;
39102;SDS011;24847;48.218;16.414;2024-02-21T04:37:46;3.42;;;1.85;;
39102;SDS011;24847;48.218;16.414;2024-02-21T04:42:49;4.43;;;1.60;;
39102;SDS011;24847;48.218;16.414;2024-02-21T04:47:52;2.53;;;1.35;;
39102;SDS011;24847;48.218;16.414;2024-02-21T04:52:54;3.30;;;1.67;;
39102;SDS011;24847;48.218;16.414;2024-02-21T04:57:57;4.70;;;1.67;;
39102;SDS011;24847;48.218;16.414;2024-02-21T05:03:02;3.85;;;1.70;;
39102;SDS011;24847;48.218;16.414;2024-02-21T05:08:05;4.00;;;1.70;;
39102;SDS011;24847;48.218;16.414;2024-02-21T05:13:09;4.28;;;1.70;;
39102;SDS011;24847;48.218;16.414;2024-02-21T05:18:11;6.38;;;1.90;;
39102;SDS011;24847;48.218;16.414;2024-02-21T05:23:13;4.57;;;1.50;;
39102;SDS011;24847;48.218;16.414;2024-02-21T05:28:17;5.75;;;1.58;;
39102;SDS011;24847;48.218;16.414;2024-02-21T05:33:19;4.05;;;1.48;;
39102;SDS011;24847;48.218;16.414;2024-02-21T05:38:22;3.55;;;1.50;;
39102;SDS011;24847;48.218;16.414;2024-02-21T05:43:25;3.40;;;1.30;;
39102;SDS011;24847;48.218;16.414;2024-02-21T05:48:27;3.58;;;1.33;;
39102;SDS011;24847;48.218;16.414;2024-02-21T05:53:29;4.25;;;1.55;;
39102;SDS011;24847;48.218;16.414;2024-02-21T05:58:33;2.00;;;1.30;;
39102;SDS011;24847;48.218;16.414;2024-02-21T06:03:35;3.85;;;1.48;;
39102;SDS011;24847;48.218;16.414;2024-02-21T06:08:39;3.05;;;1.45;;
39102;SDS011;24847;48.218;16.414;2024-02-21T06:13:42;3.55;;;1.30;;
39102;SDS011;24847;48.218;16.414;2024-02-21T06:18:44;4.43;;;1.23;;
39102;SDS011;24847;48.218;16.414;2024-02-21T06:23:47;3.67;;;1.30;;
39102;SDS011;24847;48.218;16.414;2024-02-21T06:28:51;3.45;;;1.00;;
39102;SDS011;24847;48.218;16.414;2024-02-21T06:33:53;2.45;;;1.00;;
39102;SDS011;24847;48.218;16.414;2024-02-21T06:38:56;2.38;;;0.93;;
39102;SDS011;24847;48.218;16.414;2024-02-21T06:43:59;2.80;;;1.15;;
39102;SDS011;24847;48.218;16.414;2024-02-21T06:49:02;3.67;;;1.10;;
39102;SDS011;24847;48.218;16.414;2024-02-21T06:54:04;3.15;;;1.25;;
39102;SDS011;24847;48.218;16.414;2024-02-21T06:59:08;2.63;;;1.15;;
39102;SDS011;24847;48.218;16.414;2024-02-21T07:04:10;3.45;;;1.58;;
39102;SDS011;24847;48.218;16.414;2024-02-21T07:09:13;2.45;;;1.20;;
39102;SDS011;24847;48.218;16.414;2024-02-21T07:14:17;3.33;;;0.95;;
39102;SDS011;24847;48.218;16.414;2024-02-21T07:19:20;3.58;;;1.60;;
39102;SDS011;24847;48.218;16.414;2024-02-21T07:24:22;4.10;;;1.33;;
39102;SDS011;24847;48.218;16.414;2024-02-21T07:29:25;2.88;;;1.33;;
39102;SDS011;24847;48.218;16.414;2024-02-21T07:34:27;2.15;;;1.10;;
39102;SDS011;24847;48.218;16.414;2024-02-21T07:39:29;1.58;;;0.82;;
39102;SDS011;24847;48.218;16.414;2024-02-21T07:44:33;2.22;;;1.20;;
39102;SDS011;24847;48.218;16.414;2024-02-21T07:49:40;2.63;;;1.15;;
39102;SDS011;24847;48.218;16.414;2024-02-21T07:54:44;2.83;;;1.20;;
39102;SDS011;24847;48.218;16.414;2024-02-21T07:59:47;2.25;;;1.20;;
39102;SDS011;24847;48.218;16.414;2024-02-21T08:04:50;2.85;;;0.98;;
39102;SDS011;24847;48.218;16.414;2024-02-21T08:09:52;1.27;;;0.90;;
39102;SDS011;24847;48.218;16.414;2024-02-21T08:14:55;2.40;;;1.20;;
39102;SDS011;24847;48.218;16.414;2024-02-21T08:19:58;2.25;;;0.93;;
39102;SDS011;24847;48.218;16.414;2024-02-21T08:25:00;2.10;;;1.02;;
39102;SDS011;24847;48.218;16.414;2024-02-21T08:30:07;3.03;;;1.10;;
39102;SDS011;24847;48.218;16.414;2024-02-21T08:35:10;2.50;;;1.00;;
39102;SDS011;24847;48.218;16.414;2024-02-21T08:40:13;2.67;;;0.75;;
39102;SDS011;24847;48.218;16.414;2024-02-21T08:45:19;2.47;;;1.05;;
39102;SDS011;24847;48.218;16.414;2024-02-21T08:50:21;2.50;;;1.08;;
39102;SDS011;24847;48.218;16.414;2024-02-21T08:55:23;1.60;;;0.82;;
39102;SDS011;24847;48.218;16.414;2024-02-21T09:00:27;2.58;;;1.00;;
39102;SDS011;24847;48.218;16.414;2024-02-21T09:05:29;3.15;;;0.90;;
39102;SDS011;24847;48.218;16.414;2024-02-21T09:10:31;2.70;;;0.90;;
39102;SDS011;24847;48.218;16.414;2024-02-21T09:15:35;2.28;;;1.10;;
39102;SDS011;24847;48.218;16.414;2024-02-21T09:20:37;2.38;;;0.70;;
39102;SDS011;24847;48.218;16.414;2024-02-21T09:25:39;3.40;;;0.90;;
39102;SDS011;24847;48.218;16.414;2024-02-21T09:30:42;2.90;;;0.90;;
39102;SDS011;24847;48.218;16.414;2024-02-21T09:35:45;3.67;;;1.05;;
39102;SDS011;24847;48.218;16.414;2024-02-21T09:40:47;2.70;;;0.80;;
39102;SDS011;24847;48.218;16.414;2024-02-21T09:45:56;2.00;;;1.00;;
39102;SDS011;24847;48.218;16.414;2024-02-21T09:51:00;2.63;;;1.00;;
39102;SDS011;24847;48.218;16.414;2024-02-21T09:56:04;1.75;;;0.65;;
39102;SDS011;24847;48.218;16.414;2024-02-21T10:01:10;3.63;;;1.23;;
39102;SDS011;24847;48.218;16.414;2024-02-21T10:06:12;4.20;;;0.90;;
39102;SDS011;24847;48.218;16.414;2024-02-21T10:11:21;3.22;;;0.93;;
39102;SDS011;24847;48.218;16.414;2024-02-21T10:16:25;2.55;;;0.85;;
39102;SDS011;24847;48.218;16.414;2024-02-21T10:21:27;2.05;;;0.93;;
39102;SDS011;24847;48.218;16.414;2024-02-21T10:26:30;2.35;;;1.00;;
39102;SDS011;24847;48.218;16.414;2024-02-21T10:31:33;3.00;;;1.10;;
39102;SDS011;24847;48.218;16.414;2024-02-21T10:36:36;2.83;;;1.05;;
39102;SDS011;24847;48.218;16.414;2024-02-21T10:41:38;2.22;;;0.85;;
39102;SDS011;24847;48.218;16.414;2024-02-21T10:46:43;2.60;;;1.00;;
39102;SDS011;24847;48.218;16.414;2024-02-21T10:51:46;2.92;;;0.98;;
39102;SDS011;24847;48.218;16.414;2024-02-21T10:56:49;5.05;;;1.23;;
39102;SDS011;24847;48.218;16.414;2024-02-21T11:01:54;3.10;;;1.10;;
39102;SDS011;24847;48.218;16.414;2024-02-21T11:06:56;1.92;;;0.93;;
39102;SDS011;24847;48.218;16.414;2024-02-21T11:12:02;2.53;;;0.90;;
39102;SDS011;24847;48.218;16.414;2024-02-21T11:17:15;2.08;;;0.82;;
39102;SDS011;24847;48.218;16.414;2024-02-21T11:22:18;2.10;;;0.98;;
39102;SDS011;24847;48.218;16.414;2024-02-21T11:27:23;2.83;;;0.90;;
39102;SDS011;24847;48.218;16.414;2024-02-21T11:32:27;3.00;;;1.02;;
39102;SDS011;24847;48.218;16.414;2024-02-21T11:37:30;3.28;;;1.15;;
39102;SDS011;24847;48.218;16.414;2024-02-21T11:42:34;3.05;;;0.88;;
39102;SDS011;24847;48.218;16.414;2024-02-21T11:47:38;3.15;;;0.90;;
39102;SDS011;24847;48.218;16.414;2024-02-21T11:52:42;2.30;;;1.00;;
39102;SDS011;24847;48.218;16.414;2024-02-21T11:57:47;1.90;;;0.93;;
39102;SDS011;24847;48.218;16.414;2024-02-21T12:02:51;2.17;;;1.10;;
39102;SDS011;24847;48.218;16.414;2024-02-21T12:07:53;3.53;;;1.17;;
39102;SDS011;24847;48.218;16.414;2024-02-21T12:13:04;2.58;;;1.10;;
39102;SDS011;24847;48.218;16.414;2024-02-21T12:18:11;2.67;;;0.95;;
39102;SDS011;24847;48.218;16.414;2024-02-21T12:23:13;2.33;;;0.93;;
39102;SDS011;24847;48.218;16.414;2024-02-21T12:28:15;2.28;;;0.70;;
39102;SDS011;24847;48.218;16.414;2024-02-21T12:33:19;2.20;;;1.02;;
39102;SDS011;24847;48.218;16.414;2024-02-21T12:38:22;3.17;;;1.00;;
39102;SDS011;24847;48.218;16.414;2024-02-21T12:43:24;3.72;;;0.77;;
39102;SDS011;24847;48.218;16.414;2024-02-21T12:48:28;2.88;;;0.85;;
39102;SDS011;24847;48.218;16.414;2024-02-21T12:53:30;2.28;;;0.88;;
39102;SDS011;24847;48.218;16.414;2024-02-21T12:58:32;3.35;;;0.90;;
39102;SDS011;24847;48.218;16.414;2024-02-21T13:03:36;2.20;;;1.00;;
39102;SDS011;24847;48.218;16.414;2024-02-21T13:08:38;1.52;;;0.70;;
39102;SDS011;24847;48.218;16.414;2024-02-21T13:13:41;2.80;;;1.02;;
39102;SDS011;24847;48.218;16.414;2024-02-21T13:18:44;3.10;;;0.80;;
39102;SDS011;24847;48.218;16.414;2024-02-21T13:23:47;3.88;;;0.80;;
39102;SDS011;24847;48.218;16.414;2024-02-21T13:28:50;1.25;;;0.68;;
39102;SDS011;24847;48.218;16.414;2024-02-21T13:33:53;1.58;;;0.70;;
39102;SDS011;24847;48.218;16.414;2024-02-21T13:38:56;2.20;;;0.73;;
39102;SDS011;24847;48.218;16.414;2024-02-21T13:43:58;1.77;;;0.75;;
39102;SDS011;24847;48.218;16.414;2024-02-21T13:49:03;2.08;;;0.68;;
39102;SDS011;24847;48.218;16.414;2024-02-21T13:54:07;2.63;;;0.90;;
39102;SDS011;24847;48.218;16.414;2024-02-21T13:59:09;1.60;;;0.70;;
39102;SDS011;24847;48.218;16.414;2024-02-21T14:04:15;3.22;;;0.60;;
39102;SDS011;24847;48.218;16.414;2024-02-21T14:09:17;2.78;;;0.60;;
39102;SDS011;24847;48.218;16.414;2024-02-21T14:14:19;2.03;;;0.68;;
39102;SDS011;24847;48.218;16.414;2024-02-21T14:19:23;1.33;;;0.63;;
39102;SDS011;24847;48.218;16.414;2024-02-21T14:24:25;1.48;;;0.80;;
39102;SDS011;24847;48.218;16.414;2024-02-21T14:29:27;1.67;;;0.80;;
39102;SDS011;24847;48.218;16.414;2024-02-21T14:34:31;0.93;;;0.60;;
39102;SDS011;24847;48.218;16.414;2024-02-21T14:39:33;2.35;;;0.90;;
39102;SDS011;24847;48.218;16.414;2024-02-21T14:44:35;4.25;;;0.70;;
39102;SDS011;24847;48.218;16.414;2024-02-21T14:49:39;2.50;;;0.80;;
39102;SDS011;24847;48.218;16.414;2024-02-21T14:54:41;2.38;;;0.68;;
39102;SDS011;24847;48.218;16.414;2024-02-21T14:59:46;1.58;;;0.60;;
39102;SDS011;24847;48.218;16.414;2024-02-21T15:04:51;1.73;;;0.68;;
39102;SDS011;24847;48.218;16.414;2024-02-21T15:09:53;2.60;;;1.27;;
39102;SDS011;24847;48.218;16.414;2024-02-21T15:14:55;1.70;;;1.08;;
39102;SDS011;24847;48.218;16.414;2024-02-21T15:19:59;1.92;;;0.93;;
39102;SDS011;24847;48.218;16.414;2024-02-21T15:25:02;3.03;;;0.90;;
39102;SDS011;24847;48.218;16.414;2024-02-21T15:30:06;4.15;;;1.23;;
39102;SDS011;24847;48.218;16.414;2024-02-21T15:35:12;3.70;;;1.20;;
39102;SDS011;24847;48.218;16.414;2024-02-21T15:40:14;2.30;;;0.82;;
39102;SDS011;24847;48.218;16.414;2024-02-21T15:45:16;1.60;;;0.77;;
39102;SDS011;24847;48.218;16.414;2024-02-21T15:50:20;2.13;;;1.00;;
39102;SDS011;24847;48.218;16.414;2024-02-21T15:55:22;2.65;;;0.90;;
39102;SDS011;24847;48.218;16.414;2024-02-21T16:00:25;4.15;;;1.77;;
39102;SDS011;24847;48.218;16.414;2024-02-21T16:05:29;3.72;;;2.30;;
39102;SDS011;24847;48.218;16.414;2024-02-21T16:10:31;4.20;;;1.60;;
39102;SDS011;24847;48.218;16.414;2024-02-21T16:15:33;3.70;;;1.30;;
39102;SDS011;24847;48.218;16.414;2024-02-21T16:20:38;2.25;;;1.00;;
39102;SDS011;24847;48.218;16.414;2024-02-21T16:25:40;4.35;;;1.20;;
39102;SDS011;24847;48.218;16.414;2024-02-21T16:30:44;2.92;;;1.30;;
39102;SDS011;24847;48.218;16.414;2024-02-21T16:35:48;2.92;;;1.17;;
39102;SDS011;24847;48.218;16.414;2024-02-21T16:40:50;4.72;;;1.55;;
39102;SDS011;24847;48.218;16.414;2024-02-21T16:45:52;3.28;;;1.30;;
39102;SDS011;24847;48.218;16.414;2024-02-21T16:50:56;3.38;;;1.27;;
39102;SDS011;24847;48.218;16.414;2024-02-21T16:55:58;2.05;;;1.00;;
39102;SDS011;24847;48.218;16.414;2024-02-21T17:01:01;8.02;;;3.15;;
39102;SDS011;24847;48.218;16.414;2024-02-21T17:06:07;5.05;;;2.97;;
39102;SDS011;24847;48.218;16.414;2024-02-21T17:11:09;3.20;;;2.10;;
39102;SDS011;24847;48.218;16.414;2024-02-21T17:16:12;3.70;;;2.08;;
39102;SDS011;24847;48.218;16.414;2024-02-21T17:21:15;3.20;;;1.63;;
39102;SDS011;24847;48.218;16.414;2024-02-21T17:26:18;3.65;;;1.98;;
39102;SDS011;24847;48.218;16.414;2024-02-21T17:31:21;3.50;;;1.92;;
39102;SDS011;24847;48.218;16.414;2024-02-21T17:36:25;3.50;;;2.08;;
39102;SDS011;24847;48.218;16.414;2024-02-21T17:41:27;5.45;;;2.20;;
39102;SDS011;24847;48.218;16.414;2024-02-21T17:46:29;4.65;;;2.10;;
39102;SDS011;24847;48.218;16.414;2024-02-21T17:51:33;3.28;;;2.00;;
39102;SDS011;24847;48.218;16.414;2024-02-21T17:56:35;5.97;;;2.53;;
39102;SDS011;24847;48.218;16.414;2024-02-21T18:01:37;4.60;;;2.67;;
39102;SDS011;24847;48.218;16.414;2024-02-21T18:06:41;4.22;;;2.40;;
39102;SDS011;24847;48.218;16.414;2024-02-21T18:11:44;5.05;;;2.53;;
39102;SDS011;24847;48.218;16.414;2024-02-21T18:16:47;4.40;;;2.35;;
39102;SDS011;24847;48.218;16.414;2024-02-21T18:21:50;3.22;;;1.98;;
39102;SDS011;24847;48.218;16.414;2024-02-21T18:26:52;4.45;;;2.35;;
39102;SDS011;24847;48.218;16.414;2024-02-21T18:31:54;4.43;;;2.30;;
39102;SDS011;24847;48.218;16.414;2024-02-21T18:36:58;3.25;;;1.85;;
39102;SDS011;24847;48.218;16.414;2024-02-21T18:42:01;4.78;;;2.08;;
39102;SDS011;24847;48.218;16.414;2024-02-21T18:47:04;4.18;;;1.98;;
39102;SDS011;24847;48.218;16.414;2024-02-21T18:52:08;3.38;;;2.03;;
39102;SDS011;24847;48.218;16.414;2024-02-21T18:57:10;2.90;;;1.60;;
39102;SDS011;24847;48.218;16.414;2024-02-21T19:02:15;5.05;;;1.92;;
39102;SDS011;24847;48.218;16.414;2024-02-21T19:07:19;3.67;;;2.17;;
39102;SDS011;24847;48.218;16.414;2024-02-21T19:12:21;4.20;;;1.85;;
39102;SDS011;24847;48.218;16.414;2024-02-21T19:17:24;5.05;;;1.95;;
39102;SDS011;24847;48.218;16.414;2024-02-21T19:22:30;2.70;;;1.50;;
39102;SDS011;24847;48.218;16.414;2024-02-21T19:27:33;3.17;;;1.60;;
39102;SDS011;24847;48.218;16.414;2024-02-21T19:32:35;3.45;;;1.88;;
39102;SDS011;24847;48.218;16.414;2024-02-21T19:37:39;3.97;;;1.83;;
39102;SDS011;24847;48.218;16.414;2024-02-21T19:42:42;3.47;;;1.90;;
39102;SDS011;24847;48.218;16.414;2024-02-21T19:47:47;3.65;;;1.98;;
39102;SDS011;24847;48.218;16.414;2024-02-21T19:52:50;3.55;;;1.83;;
39102;SDS011;24847;48.218;16.414;2024-02-21T19:57:55;6.63;;;1.95;;
39102;SDS011;24847;48.218;16.414;2024-02-21T20:02:58;4.57;;;2.00;;
39102;SDS011;24847;48.218;16.414;2024-02-21T20:08:02;4.15;;;2.10;;
39102;SDS011;24847;48.218;16.414;2024-02-21T20:13:07;3.55;;;1.90;;
39102;SDS011;24847;48.218;16.414;2024-02-21T20:18:13;4.88;;;2.38;;
39102;SDS011;24847;48.218;16.414;2024-02-21T20:23:17;3.90;;;2.53;;
39102;SDS011;24847;48.218;16.414;2024-02-21T20:28:20;3.67;;;2.17;;
39102;SDS011;24847;48.218;16.414;2024-02-21T20:33:22;4.20;;;2.78;;
39102;SDS011;24847;48.218;16.414;2024-02-21T20:38:26;3.53;;;2.33;;
39102;SDS011;24847;48.218;16.414;2024-02-21T20:43:28;4.47;;;2.70;;
39102;SDS011;24847;48.218;16.414;2024-02-21T20:48:31;6.05;;;3.22;;
39102;SDS011;24847;48.218;16.414;2024-02-21T20:53:34;5.75;;;2.95;;
39102;SDS011;24847;48.218;16.414;2024-02-21T20:58:37;6.45;;;3.42;;
39102;SDS011;24847;48.218;16.414;2024-02-21T21:03:40;7.05;;;3.53;;
39102;SDS011;24847;48.218;16.414;2024-02-21T21:08:44;5.43;;;3.60;;
39102;SDS011;24847;48.218;16.414;2024-02-21T21:13:46;4.68;;;3.38;;
39102;SDS011;24847;48.218;16.414;2024-02-21T21:18:49;6.68;;;3.05;;
39102;SDS011;24847;48.218;16.414;2024-02-21T21:23:53;5.75;;;3.83;;
39102;SDS011;24847;48.218;16.414;2024-02-21T21:28:56;5.82;;;3.58;;
39102;SDS011;24847;48.218;16.414;2024-02-21T21:33:58;6.57;;;3.53;;
39102;SDS011;24847;48.218;16.414;2024-02-21T21:39:02;4.32;;;3.13;;
39102;SDS011;24847;48.218;16.414;2024-02-21T21:44:05;3.58;;;3.00;;
39102;SDS011;24847;48.218;16.414;2024-02-21T21:49:07;4.07;;;3.05;;
39102;SDS011;24847;48.218;16.414;2024-02-21T21:54:11;5.50;;;3.25;;
39102;SDS011;24847;48.218;16.414;2024-02-21T21:59:13;7.65;;;3.60;;
39102;SDS011;24847;48.218;16.414;2024-02-21T22:04:15;6.50;;;3.78;;
39102;SDS011;24847;48.218;16.414;2024-02-21T22:09:19;4.85;;;3.10;;
39102;SDS011;24847;48.218;16.414;2024-02-21T22:14:22;4.50;;;3.03;;
39102;SDS011;24847;48.218;16.414;2024-02-21T22:19:24;5.15;;;3.00;;
39102;SDS011;24847;48.218;16.414;2024-02-21T22:24:27;6.00;;;3.25;;
39102;SDS011;24847;48.218;16.414;2024-02-21T22:29:29;5.50;;;3.00;;
39102;SDS011;24847;48.218;16.414;2024-02-21T22:34:33;4.65;;;2.90;;
39102;SDS011;24847;48.218;16.414;2024-02-21T22:39:37;4.97;;;2.80;;
39102;SDS011;24847;48.218;16.414;2024-02-21T22:44:41;3.67;;;2.28;;
39102;SDS011;24847;48.218;16.414;2024-02-21T22:49:43;4.07;;;2.75;;
39102;SDS011;24847;48.218;16.414;2024-02-21T22:54:47;4.95;;;3.40;;
39102;SDS011;24847;48.218;16.414;2024-02-21T22:59:49;3.70;;;2.50;;
39102;SDS011;24847;48.218;16.414;2024-02-21T23:04:51;2.83;;;2.33;;
39102;SDS011;24847;48.218;16.414;2024-02-21T23:09:55;3.58;;;2.47;;
39102;SDS011;24847;48.218;16.414;2024-02-21T23:14:58;4.78;;;2.88;;
39102;SDS011;24847;48.218;16.414;2024-02-21T23:20:00;3.95;;;3.03;;
39102;SDS011;24847;48.218;16.414;2024-02-21T23:25:08;5.00;;;2.97;;
39102;SDS011;24847;48.218;16.414;2024-02-21T23:30:11;4.85;;;2.83;;
39102;SDS011;24847;48.218;16.414;2024-02-21T23:35:14;3.58;;;2.50;;
39102;SDS011;24847;48.218;16.414;2024-02-21T23:40:18;4.45;;;2.60;;
39102;SDS011;24847;48.218;16.414;2024-02-21T23:45:21;3.88;;;2.65;;
39102;SDS011;24847;48.218;16.414;2024-02-21T23:50:23;3.45;;;2.33;;
39102;SDS011;24847;48.218;16.414;2024-02-21T23:55:27;4.20;;;2.20;;
